sensor_id;sensor_type;location;lat;lon;timestamp;P1;durP1;ratioP1;P2;durP2;ratioP2
48006;SDS011;33771;48.180;11.400;2023-03-23T00:03:39;5.67;;;2.87;;
48006;SDS011;33771;48.180;11.400;2023-03-23T00:06:17;6.03;;;2.90;;
48006;SDS011;33771;48.180;11.400;2023-03-23T00:08:47;4.13;;;3.10;;
48006;SDS011;33771;48.180;11.400;2023-03-23T00:11:19;8.47;;;3.07;;
48006;SDS011;33771;48.180;11.400;2023-03-23T00:13:57;4.57;;;2.63;;
48006;SDS011;33771;48.180;11.400;2023-03-23T00:16:26;5.97;;;3.10;;
48006;SDS011;33771;48.180;11.400;2023-03-23T00:18:58;5.67;;;2.80;;
48006;SDS011;33771;48.180;11.400;2023-03-23T00:22:07;8.40;;;2.83;;
48006;SDS011;33771;48.180;11.400;2023-03-23T00:24:35;5.50;;;3.23;;
48006;SDS011;33771;48.180;11.400;2023-03-23T00:30:28;7.13;;;3.17;;
48006;SDS011;33771;48.180;11.400;2023-03-23T00:32:57;5.67;;;2.77;;
48006;SDS011;33771;48.180;11.400;2023-03-23T00:35:26;3.80;;;2.77;;
48006;SDS011;33771;48.180;11.400;2023-03-23T00:37:56;4.03;;;2.77;;
48006;SDS011;33771;48.180;11.400;2023-03-23T00:40:26;4.60;;;2.80;;
48006;SDS011;33771;48.180;11.400;2023-03-23T00:48:37;4.97;;;3.40;;
48006;SDS011;33771;48.180;11.400;2023-03-23T00:51:09;7.72;;;3.38;;
48006;SDS011;33771;48.180;11.400;2023-03-23T00:53:47;5.13;;;3.30;;
48006;SDS011;33771;48.180;11.400;2023-03-23T00:56:16;5.57;;;3.30;;
48006;SDS011;33771;48.180;11.400;2023-03-23T00:58:49;4.43;;;3.00;;
48006;SDS011;33771;48.180;11.400;2023-03-23T01:01:15;7.13;;;3.17;;
48006;SDS011;33771;48.180;11.400;2023-03-23T01:03:50;5.40;;;3.33;;
48006;SDS011;33771;48.180;11.400;2023-03-23T01:06:36;7.30;;;3.50;;
48006;SDS011;33771;48.180;11.400;2023-03-23T01:09:30;5.50;;;3.00;;
48006;SDS011;33771;48.180;11.400;2023-03-23T01:12:07;5.47;;;3.33;;
48006;SDS011;33771;48.180;11.400;2023-03-23T01:14:35;6.00;;;3.77;;
48006;SDS011;33771;48.180;11.400;2023-03-23T01:17:08;6.03;;;3.13;;
48006;SDS011;33771;48.180;11.400;2023-03-23T01:19:36;6.80;;;3.60;;
48006;SDS011;33771;48.180;11.400;2023-03-23T01:25:17;14.17;;;4.47;;
48006;SDS011;33771;48.180;11.400;2023-03-23T01:27:46;5.40;;;3.97;;
48006;SDS011;33771;48.180;11.400;2023-03-23T01:30:20;5.80;;;3.80;;
48006;SDS011;33771;48.180;11.400;2023-03-23T01:32:57;15.10;;;4.30;;
48006;SDS011;33771;48.180;11.400;2023-03-23T01:35:25;7.97;;;4.20;;
48006;SDS011;33771;48.180;11.400;2023-03-23T01:38:00;7.00;;;4.80;;
48006;SDS011;33771;48.180;11.400;2023-03-23T01:40:35;9.07;;;5.73;;
48006;SDS011;33771;48.180;11.400;2023-03-23T01:43:10;7.10;;;5.03;;
48006;SDS011;33771;48.180;11.400;2023-03-23T01:46:10;6.70;;;4.80;;
48006;SDS011;33771;48.180;11.400;2023-03-23T01:48:38;5.95;;;4.28;;
48006;SDS011;33771;48.180;11.400;2023-03-23T01:51:07;6.03;;;3.90;;
48006;SDS011;33771;48.180;11.400;2023-03-23T01:53:51;10.77;;;4.60;;
48006;SDS011;33771;48.180;11.400;2023-03-23T01:56:38;8.63;;;4.50;;
48006;SDS011;33771;48.180;11.400;2023-03-23T01:59:19;9.90;;;5.17;;
48006;SDS011;33771;48.180;11.400;2023-03-23T02:01:56;5.07;;;3.90;;
48006;SDS011;33771;48.180;11.400;2023-03-23T02:04:22;8.10;;;4.27;;
48006;SDS011;33771;48.180;11.400;2023-03-23T02:06:54;7.10;;;5.17;;
48006;SDS011;33771;48.180;11.400;2023-03-23T02:09:25;8.13;;;4.87;;
48006;SDS011;33771;48.180;11.400;2023-03-23T02:11:59;7.10;;;5.03;;
48006;SDS011;33771;48.180;11.400;2023-03-23T02:14:28;6.13;;;4.40;;
48006;SDS011;33771;48.180;11.400;2023-03-23T02:28:12;7.63;;;4.43;;
48006;SDS011;33771;48.180;11.400;2023-03-23T02:36:59;5.17;;;3.53;;
48006;SDS011;33771;48.180;11.400;2023-03-23T02:40:02;5.57;;;3.57;;
48006;SDS011;33771;48.180;11.400;2023-03-23T02:42:55;5.57;;;3.50;;
48006;SDS011;33771;48.180;11.400;2023-03-23T02:45:27;10.57;;;4.57;;
48006;SDS011;33771;48.180;11.400;2023-03-23T02:48:09;8.53;;;3.57;;
48006;SDS011;33771;48.180;11.400;2023-03-23T02:50:50;7.23;;;3.40;;
48006;SDS011;33771;48.180;11.400;2023-03-23T02:53:26;8.93;;;3.07;;
48006;SDS011;33771;48.180;11.400;2023-03-23T02:55:55;8.33;;;3.30;;
48006;SDS011;33771;48.180;11.400;2023-03-23T03:07:00;9.37;;;3.40;;
48006;SDS011;33771;48.180;11.400;2023-03-23T03:10:11;4.53;;;3.13;;
48006;SDS011;33771;48.180;11.400;2023-03-23T03:15:37;12.07;;;3.50;;
48006;SDS011;33771;48.180;11.400;2023-03-23T03:18:20;6.43;;;2.73;;
48006;SDS011;33771;48.180;11.400;2023-03-23T03:21:29;6.40;;;3.17;;
48006;SDS011;33771;48.180;11.400;2023-03-23T03:24:01;5.13;;;2.77;;
48006;SDS011;33771;48.180;11.400;2023-03-23T03:26:57;7.15;;;3.03;;
48006;SDS011;33771;48.180;11.400;2023-03-23T03:29:26;4.43;;;2.87;;
48006;SDS011;33771;48.180;11.400;2023-03-23T03:31:57;5.10;;;2.80;;
48006;SDS011;33771;48.180;11.400;2023-03-23T03:34:24;6.03;;;2.80;;
48006;SDS011;33771;48.180;11.400;2023-03-23T03:36:56;5.43;;;3.00;;
48006;SDS011;33771;48.180;11.400;2023-03-23T03:39:31;4.50;;;3.00;;
48006;SDS011;33771;48.180;11.400;2023-03-23T03:42:04;6.80;;;3.10;;
48006;SDS011;33771;48.180;11.400;2023-03-23T03:44:39;5.60;;;3.03;;
48006;SDS011;33771;48.180;11.400;2023-03-23T03:47:08;5.60;;;2.73;;
48006;SDS011;33771;48.180;11.400;2023-03-23T03:49:36;6.40;;;3.10;;
48006;SDS011;33771;48.180;11.400;2023-03-23T03:52:09;6.03;;;3.00;;
48006;SDS011;33771;48.180;11.400;2023-03-23T03:54:37;4.57;;;2.80;;
48006;SDS011;33771;48.180;11.400;2023-03-23T03:57:05;3.60;;;2.73;;
48006;SDS011;33771;48.180;11.400;2023-03-23T03:59:38;4.40;;;3.10;;
48006;SDS011;33771;48.180;11.400;2023-03-23T04:02:06;4.70;;;3.10;;
48006;SDS011;33771;48.180;11.400;2023-03-23T04:04:39;5.33;;;2.90;;
48006;SDS011;33771;48.180;11.400;2023-03-23T04:07:06;7.07;;;3.13;;
48006;SDS011;33771;48.180;11.400;2023-03-23T04:09:39;5.27;;;2.97;;
48006;SDS011;33771;48.180;11.400;2023-03-23T04:12:07;5.67;;;2.87;;
48006;SDS011;33771;48.180;11.400;2023-03-23T04:14:41;4.60;;;2.77;;
48006;SDS011;33771;48.180;11.400;2023-03-23T04:17:19;7.03;;;3.30;;
48006;SDS011;33771;48.180;11.400;2023-03-23T04:19:47;5.27;;;3.00;;
48006;SDS011;33771;48.180;11.400;2023-03-23T04:22:20;6.70;;;3.00;;
48006;SDS011;33771;48.180;11.400;2023-03-23T04:24:57;7.57;;;2.93;;
48006;SDS011;33771;48.180;11.400;2023-03-23T04:27:25;5.83;;;3.20;;
48006;SDS011;33771;48.180;11.400;2023-03-23T04:29:56;5.43;;;2.87;;
48006;SDS011;33771;48.180;11.400;2023-03-23T04:32:26;10.73;;;3.07;;
48006;SDS011;33771;48.180;11.400;2023-03-23T04:34:56;6.87;;;2.97;;
48006;SDS011;33771;48.180;11.400;2023-03-23T04:37:24;5.60;;;2.93;;
48006;SDS011;33771;48.180;11.400;2023-03-23T04:39:53;8.00;;;2.70;;
48006;SDS011;33771;48.180;11.400;2023-03-23T04:42:27;3.80;;;2.83;;
48006;SDS011;33771;48.180;11.400;2023-03-23T04:44:55;4.43;;;2.77;;
48006;SDS011;33771;48.180;11.400;2023-03-23T04:47:21;5.63;;;3.40;;
48006;SDS011;33771;48.180;11.400;2023-03-23T04:49:47;6.23;;;3.07;;
48006;SDS011;33771;48.180;11.400;2023-03-23T04:52:13;5.37;;;3.33;;
48006;SDS011;33771;48.180;11.400;2023-03-23T04:54:39;7.80;;;3.30;;
48006;SDS011;33771;48.180;11.400;2023-03-23T04:57:04;9.27;;;3.20;;
48006;SDS011;33771;48.180;11.400;2023-03-23T04:59:30;6.93;;;2.90;;
48006;SDS011;33771;48.180;11.400;2023-03-23T05:01:56;6.80;;;3.20;;
48006;SDS011;33771;48.180;11.400;2023-03-23T05:04:22;5.27;;;3.00;;
48006;SDS011;33771;48.180;11.400;2023-03-23T05:06:50;4.93;;;3.03;;
48006;SDS011;33771;48.180;11.400;2023-03-23T05:09:16;6.47;;;3.57;;
48006;SDS011;33771;48.180;11.400;2023-03-23T05:11:42;5.90;;;3.17;;
48006;SDS011;33771;48.180;11.400;2023-03-23T05:14:10;5.50;;;3.50;;
48006;SDS011;33771;48.180;11.400;2023-03-23T05:16:38;6.97;;;3.40;;
48006;SDS011;33771;48.180;11.400;2023-03-23T05:19:05;4.97;;;3.23;;
48006;SDS011;33771;48.180;11.400;2023-03-23T05:21:31;10.20;;;3.27;;
48006;SDS011;33771;48.180;11.400;2023-03-23T05:23:56;8.00;;;3.03;;
48006;SDS011;33771;48.180;11.400;2023-03-23T05:26:25;7.20;;;3.23;;
48006;SDS011;33771;48.180;11.400;2023-03-23T05:28:54;5.70;;;3.10;;
48006;SDS011;33771;48.180;11.400;2023-03-23T05:31:22;5.57;;;3.00;;
48006;SDS011;33771;48.180;11.400;2023-03-23T05:33:49;8.73;;;3.10;;
48006;SDS011;33771;48.180;11.400;2023-03-23T05:36:15;6.30;;;2.90;;
48006;SDS011;33771;48.180;11.400;2023-03-23T05:38:41;6.77;;;2.83;;
48006;SDS011;33771;48.180;11.400;2023-03-23T05:41:10;5.03;;;3.03;;
48006;SDS011;33771;48.180;11.400;2023-03-23T05:43:39;4.33;;;2.50;;
48006;SDS011;33771;48.180;11.400;2023-03-23T05:46:05;4.73;;;2.60;;
48006;SDS011;33771;48.180;11.400;2023-03-23T05:48:34;3.90;;;2.37;;
48006;SDS011;33771;48.180;11.400;2023-03-23T05:51:03;5.37;;;2.40;;
48006;SDS011;33771;48.180;11.400;2023-03-23T05:53:28;4.03;;;2.37;;
48006;SDS011;33771;48.180;11.400;2023-03-23T05:55:59;6.13;;;2.40;;
48006;SDS011;33771;48.180;11.400;2023-03-23T05:58:28;7.00;;;2.20;;
48006;SDS011;33771;48.180;11.400;2023-03-23T06:00:56;6.10;;;2.33;;
48006;SDS011;33771;48.180;11.400;2023-03-23T06:05:47;6.33;;;3.10;;
48006;SDS011;33771;48.180;11.400;2023-03-23T06:08:13;6.83;;;3.47;;
48006;SDS011;33771;48.180;11.400;2023-03-23T06:10:47;9.97;;;2.87;;
48006;SDS011;33771;48.180;11.400;2023-03-23T06:13:13;6.53;;;2.27;;
48006;SDS011;33771;48.180;11.400;2023-03-23T06:15:41;4.40;;;2.30;;
48006;SDS011;33771;48.180;11.400;2023-03-23T06:18:09;6.00;;;2.53;;
48006;SDS011;33771;48.180;11.400;2023-03-23T06:20:35;6.27;;;2.10;;
48006;SDS011;33771;48.180;11.400;2023-03-23T06:23:04;6.50;;;2.47;;
48006;SDS011;33771;48.180;11.400;2023-03-23T06:25:33;7.27;;;3.20;;
48006;SDS011;33771;48.180;11.400;2023-03-23T06:28:04;7.17;;;2.70;;
48006;SDS011;33771;48.180;11.400;2023-03-23T06:30:34;11.87;;;3.30;;
48006;SDS011;33771;48.180;11.400;2023-03-23T06:33:00;7.37;;;2.63;;
48006;SDS011;33771;48.180;11.400;2023-03-23T06:35:25;8.83;;;3.13;;
48006;SDS011;33771;48.180;11.400;2023-03-23T06:37:51;5.80;;;2.87;;
48006;SDS011;33771;48.180;11.400;2023-03-23T06:40:18;9.97;;;3.00;;
48006;SDS011;33771;48.180;11.400;2023-03-23T06:42:44;5.53;;;2.77;;
48006;SDS011;33771;48.180;11.400;2023-03-23T06:45:10;12.10;;;2.90;;
48006;SDS011;33771;48.180;11.400;2023-03-23T06:47:36;3.97;;;2.50;;
48006;SDS011;33771;48.180;11.400;2023-03-23T06:50:01;6.33;;;2.93;;
48006;SDS011;33771;48.180;11.400;2023-03-23T06:52:27;5.93;;;2.70;;
48006;SDS011;33771;48.180;11.400;2023-03-23T06:54:52;8.87;;;2.90;;
48006;SDS011;33771;48.180;11.400;2023-03-23T06:57:19;5.77;;;2.60;;
48006;SDS011;33771;48.180;11.400;2023-03-23T06:59:45;6.33;;;2.70;;
48006;SDS011;33771;48.180;11.400;2023-03-23T07:02:11;10.83;;;2.93;;
48006;SDS011;33771;48.180;11.400;2023-03-23T07:04:38;7.67;;;2.53;;
48006;SDS011;33771;48.180;11.400;2023-03-23T07:07:05;6.93;;;2.60;;
48006;SDS011;33771;48.180;11.400;2023-03-23T07:09:32;7.23;;;2.97;;
48006;SDS011;33771;48.180;11.400;2023-03-23T07:11:58;7.97;;;2.60;;
48006;SDS011;33771;48.180;11.400;2023-03-23T07:14:24;5.80;;;2.27;;
48006;SDS011;33771;48.180;11.400;2023-03-23T07:16:52;8.83;;;2.43;;
48006;SDS011;33771;48.180;11.400;2023-03-23T07:19:18;7.73;;;2.47;;
48006;SDS011;33771;48.180;11.400;2023-03-23T07:21:44;8.13;;;2.33;;
48006;SDS011;33771;48.180;11.400;2023-03-23T07:24:10;5.00;;;2.42;;
48006;SDS011;33771;48.180;11.400;2023-03-23T07:26:38;5.00;;;2.20;;
48006;SDS011;33771;48.180;11.400;2023-03-23T07:29:07;5.83;;;2.83;;
48006;SDS011;33771;48.180;11.400;2023-03-23T07:31:33;5.90;;;2.13;;
48006;SDS011;33771;48.180;11.400;2023-03-23T07:34:00;3.35;;;2.10;;
48006;SDS011;33771;48.180;11.400;2023-03-23T07:36:26;7.82;;;2.40;;
48006;SDS011;33771;48.180;11.400;2023-03-23T07:38:51;7.45;;;2.83;;
48006;SDS011;33771;48.180;11.400;2023-03-23T07:41:17;3.70;;;2.33;;
48006;SDS011;33771;48.180;11.400;2023-03-23T07:43:44;4.35;;;2.30;;
48006;SDS011;33771;48.180;11.400;2023-03-23T07:46:10;3.63;;;2.45;;
48006;SDS011;33771;48.180;11.400;2023-03-23T07:48:36;5.53;;;2.17;;
48006;SDS011;33771;48.180;11.400;2023-03-23T07:51:02;5.75;;;2.38;;
48006;SDS011;33771;48.180;11.400;2023-03-23T07:53:28;5.50;;;2.20;;
48006;SDS011;33771;48.180;11.400;2023-03-23T07:55:54;6.38;;;2.40;;
48006;SDS011;33771;48.180;11.400;2023-03-23T07:58:19;4.90;;;2.25;;
48006;SDS011;33771;48.180;11.400;2023-03-23T08:00:46;5.47;;;1.98;;
48006;SDS011;33771;48.180;11.400;2023-03-23T08:03:13;7.72;;;2.10;;
48006;SDS011;33771;48.180;11.400;2023-03-23T08:05:39;2.50;;;1.85;;
48006;SDS011;33771;48.180;11.400;2023-03-23T08:08:06;5.70;;;2.38;;
48006;SDS011;33771;48.180;11.400;2023-03-23T08:10:34;4.70;;;2.00;;
48006;SDS011;33771;48.180;11.400;2023-03-23T08:13:02;3.88;;;1.90;;
48006;SDS011;33771;48.180;11.400;2023-03-23T08:15:28;6.43;;;2.08;;
48006;SDS011;33771;48.180;11.400;2023-03-23T08:17:54;4.30;;;2.22;;
48006;SDS011;33771;48.180;11.400;2023-03-23T08:20:20;4.80;;;2.20;;
48006;SDS011;33771;48.180;11.400;2023-03-23T08:22:54;7.03;;;2.22;;
48006;SDS011;33771;48.180;11.400;2023-03-23T08:25:22;6.82;;;2.25;;
48006;SDS011;33771;48.180;11.400;2023-03-23T08:27:49;3.72;;;2.20;;
48006;SDS011;33771;48.180;11.400;2023-03-23T08:30:16;5.43;;;2.00;;
48006;SDS011;33771;48.180;11.400;2023-03-23T08:32:44;6.15;;;2.10;;
48006;SDS011;33771;48.180;11.400;2023-03-23T08:35:11;4.90;;;2.10;;
48006;SDS011;33771;48.180;11.400;2023-03-23T08:37:38;7.13;;;2.28;;
48006;SDS011;33771;48.180;11.400;2023-03-23T08:40:04;5.78;;;2.45;;
48006;SDS011;33771;48.180;11.400;2023-03-23T08:42:33;4.90;;;2.13;;
48006;SDS011;33771;48.180;11.400;2023-03-23T08:44:58;4.57;;;2.13;;
48006;SDS011;33771;48.180;11.400;2023-03-23T08:47:24;7.03;;;2.13;;
48006;SDS011;33771;48.180;11.400;2023-03-23T08:49:50;8.65;;;2.60;;
48006;SDS011;33771;48.180;11.400;2023-03-23T08:52:18;8.68;;;2.30;;
48006;SDS011;33771;48.180;11.400;2023-03-23T08:54:43;11.35;;;2.47;;
48006;SDS011;33771;48.180;11.400;2023-03-23T08:57:12;7.97;;;2.35;;
48006;SDS011;33771;48.180;11.400;2023-03-23T08:59:39;3.67;;;1.95;;
48006;SDS011;33771;48.180;11.400;2023-03-23T09:02:05;3.10;;;2.20;;
48006;SDS011;33771;48.180;11.400;2023-03-23T09:04:31;6.90;;;2.40;;
48006;SDS011;33771;48.180;11.400;2023-03-23T09:06:57;6.43;;;2.15;;
48006;SDS011;33771;48.180;11.400;2023-03-23T09:09:23;6.50;;;2.10;;
48006;SDS011;33771;48.180;11.400;2023-03-23T09:11:48;10.63;;;2.42;;
48006;SDS011;33771;48.180;11.400;2023-03-23T09:14:14;4.05;;;2.05;;
48006;SDS011;33771;48.180;11.400;2023-03-23T09:16:40;5.50;;;2.22;;
48006;SDS011;33771;48.180;11.400;2023-03-23T09:19:05;6.03;;;2.00;;
48006;SDS011;33771;48.180;11.400;2023-03-23T09:21:34;7.35;;;2.60;;
48006;SDS011;33771;48.180;11.400;2023-03-23T09:23:59;5.03;;;2.10;;
48006;SDS011;33771;48.180;11.400;2023-03-23T09:26:26;7.15;;;2.58;;
48006;SDS011;33771;48.180;11.400;2023-03-23T09:28:52;4.13;;;2.13;;
48006;SDS011;33771;48.180;11.400;2023-03-23T09:31:18;6.10;;;2.20;;
48006;SDS011;33771;48.180;11.400;2023-03-23T09:33:47;9.75;;;2.28;;
48006;SDS011;33771;48.180;11.400;2023-03-23T09:36:17;3.15;;;2.10;;
48006;SDS011;33771;48.180;11.400;2023-03-23T09:38:46;4.72;;;1.88;;
48006;SDS011;33771;48.180;11.400;2023-03-23T09:44:33;8.55;;;2.08;;
48006;SDS011;33771;48.180;11.400;2023-03-23T09:47:06;2.77;;;1.70;;
48006;SDS011;33771;48.180;11.400;2023-03-23T09:49:57;4.45;;;1.92;;
48006;SDS011;33771;48.180;11.400;2023-03-23T09:52:32;9.07;;;2.20;;
48006;SDS011;33771;48.180;11.400;2023-03-23T09:55:02;4.68;;;1.80;;
48006;SDS011;33771;48.180;11.400;2023-03-23T09:57:31;5.05;;;1.80;;
48006;SDS011;33771;48.180;11.400;2023-03-23T10:00:09;7.13;;;2.15;;
48006;SDS011;33771;48.180;11.400;2023-03-23T10:05:37;3.80;;;1.80;;
48006;SDS011;33771;48.180;11.400;2023-03-23T10:08:27;4.60;;;2.03;;
48006;SDS011;33771;48.180;11.400;2023-03-23T10:14:01;3.13;;;2.38;;
48006;SDS011;33771;48.180;11.400;2023-03-23T10:16:37;5.68;;;2.10;;
48006;SDS011;33771;48.180;11.400;2023-03-23T10:22:11;6.95;;;2.30;;
48006;SDS011;33771;48.180;11.400;2023-03-23T10:24:49;6.10;;;2.95;;
48006;SDS011;33771;48.180;11.400;2023-03-23T10:27:26;4.10;;;2.13;;
48006;SDS011;33771;48.180;11.400;2023-03-23T10:30:25;8.52;;;2.50;;
48006;SDS011;33771;48.180;11.400;2023-03-23T10:33:01;5.00;;;2.15;;
48006;SDS011;33771;48.180;11.400;2023-03-23T10:35:37;5.07;;;2.33;;
48006;SDS011;33771;48.180;11.400;2023-03-23T10:38:15;3.60;;;2.08;;
48006;SDS011;33771;48.180;11.400;2023-03-23T10:40:52;6.43;;;2.45;;
48006;SDS011;33771;48.180;11.400;2023-03-23T10:43:21;7.95;;;2.13;;
48006;SDS011;33771;48.180;11.400;2023-03-23T10:45:49;8.30;;;2.92;;
48006;SDS011;33771;48.180;11.400;2023-03-23T10:48:25;5.18;;;2.33;;
48006;SDS011;33771;48.180;11.400;2023-03-23T10:51:02;9.57;;;2.65;;
48006;SDS011;33771;48.180;11.400;2023-03-23T10:56:02;4.95;;;2.00;;
48006;SDS011;33771;48.180;11.400;2023-03-23T10:58:30;4.35;;;1.95;;
48006;SDS011;33771;48.180;11.400;2023-03-23T11:00:59;4.18;;;2.35;;
48006;SDS011;33771;48.180;11.400;2023-03-23T11:06:02;4.55;;;2.30;;
48006;SDS011;33771;48.180;11.400;2023-03-23T11:08:32;10.45;;;2.67;;
48006;SDS011;33771;48.180;11.400;2023-03-23T11:11:11;8.93;;;2.72;;
48006;SDS011;33771;48.180;11.400;2023-03-23T11:13:48;7.18;;;2.55;;
48006;SDS011;33771;48.180;11.400;2023-03-23T11:16:26;3.00;;;2.40;;
48006;SDS011;33771;48.180;11.400;2023-03-23T11:18:53;5.72;;;2.75;;
48006;SDS011;33771;48.180;11.400;2023-03-23T11:21:20;4.28;;;2.35;;
48006;SDS011;33771;48.180;11.400;2023-03-23T11:23:49;5.03;;;2.40;;
48006;SDS011;33771;48.180;11.400;2023-03-23T11:33:52;6.72;;;2.42;;
48006;SDS011;33771;48.180;11.400;2023-03-23T11:36:31;4.88;;;2.78;;
48006;SDS011;33771;48.180;11.400;2023-03-23T11:39:01;3.20;;;2.30;;
48006;SDS011;33771;48.180;11.400;2023-03-23T11:41:43;3.20;;;2.20;;
48006;SDS011;33771;48.180;11.400;2023-03-23T11:44:10;5.75;;;2.65;;
48006;SDS011;33771;48.180;11.400;2023-03-23T11:52:11;4.35;;;2.65;;
48006;SDS011;33771;48.180;11.400;2023-03-23T11:54:41;8.30;;;2.60;;
48006;SDS011;33771;48.180;11.400;2023-03-23T11:57:11;3.83;;;2.45;;
48006;SDS011;33771;48.180;11.400;2023-03-23T11:59:39;5.50;;;2.30;;
48006;SDS011;33771;48.180;11.400;2023-03-23T12:10:31;5.68;;;2.60;;
48006;SDS011;33771;48.180;11.400;2023-03-23T12:13:13;7.15;;;2.97;;
48006;SDS011;33771;48.180;11.400;2023-03-23T12:27:39;6.22;;;2.40;;
48006;SDS011;33771;48.180;11.400;2023-03-23T12:32:42;7.45;;;2.38;;
48006;SDS011;33771;48.180;11.400;2023-03-23T12:36:03;4.13;;;2.22;;
48006;SDS011;33771;48.180;11.400;2023-03-23T12:41:22;3.85;;;2.35;;
48006;SDS011;33771;48.180;11.400;2023-03-23T12:49:17;5.93;;;2.25;;
48006;SDS011;33771;48.180;11.400;2023-03-23T12:57:27;2.80;;;1.90;;
48006;SDS011;33771;48.180;11.400;2023-03-23T13:00:19;5.72;;;2.00;;
48006;SDS011;33771;48.180;11.400;2023-03-23T13:08:22;4.15;;;2.22;;
48006;SDS011;33771;48.180;11.400;2023-03-23T13:10:54;3.00;;;1.98;;
48006;SDS011;33771;48.180;11.400;2023-03-23T13:13:25;3.95;;;1.60;;
48006;SDS011;33771;48.180;11.400;2023-03-23T13:16:11;4.93;;;1.80;;
48006;SDS011;33771;48.180;11.400;2023-03-23T13:21:45;4.70;;;1.90;;
48006;SDS011;33771;48.180;11.400;2023-03-23T13:24:21;2.77;;;1.60;;
48006;SDS011;33771;48.180;11.400;2023-03-23T13:26:50;3.17;;;1.80;;
48006;SDS011;33771;48.180;11.400;2023-03-23T13:29:20;4.82;;;2.10;;
48006;SDS011;33771;48.180;11.400;2023-03-23T13:31:49;4.47;;;1.85;;
48006;SDS011;33771;48.180;11.400;2023-03-23T13:36:52;3.65;;;1.42;;
48006;SDS011;33771;48.180;11.400;2023-03-23T13:39:28;4.72;;;1.77;;
48006;SDS011;33771;48.180;11.400;2023-03-23T13:49:57;8.15;;;1.70;;
48006;SDS011;33771;48.180;11.400;2023-03-23T13:57:51;6.47;;;1.90;;
48006;SDS011;33771;48.180;11.400;2023-03-23T14:00:33;7.05;;;2.53;;
48006;SDS011;33771;48.180;11.400;2023-03-23T14:18:51;5.97;;;1.30;;
48006;SDS011;33771;48.180;11.400;2023-03-23T14:21:49;4.88;;;1.77;;
48006;SDS011;33771;48.180;11.400;2023-03-23T14:24:19;6.35;;;1.70;;
48006;SDS011;33771;48.180;11.400;2023-03-23T14:27:28;3.00;;;1.50;;
48006;SDS011;33771;48.180;11.400;2023-03-23T14:29:57;1.90;;;1.40;;
48006;SDS011;33771;48.180;11.400;2023-03-23T14:32:24;5.55;;;1.67;;
48006;SDS011;33771;48.180;11.400;2023-03-23T14:34:52;3.10;;;1.80;;
48006;SDS011;33771;48.180;11.400;2023-03-23T14:37:18;8.68;;;1.80;;
48006;SDS011;33771;48.180;11.400;2023-03-23T14:39:49;6.43;;;1.85;;
48006;SDS011;33771;48.180;11.400;2023-03-23T14:42:19;4.32;;;1.67;;
48006;SDS011;33771;48.180;11.400;2023-03-23T14:44:49;6.88;;;2.00;;
48006;SDS011;33771;48.180;11.400;2023-03-23T14:47:16;4.70;;;1.63;;
48006;SDS011;33771;48.180;11.400;2023-03-23T14:49:52;3.00;;;1.83;;
48006;SDS011;33771;48.180;11.400;2023-03-23T14:52:21;6.15;;;1.80;;
48006;SDS011;33771;48.180;11.400;2023-03-23T14:54:51;4.20;;;2.00;;
48006;SDS011;33771;48.180;11.400;2023-03-23T14:57:17;7.15;;;1.80;;
48006;SDS011;33771;48.180;11.400;2023-03-23T14:59:53;3.50;;;1.90;;
48006;SDS011;33771;48.180;11.400;2023-03-23T15:02:27;4.72;;;1.80;;
48006;SDS011;33771;48.180;11.400;2023-03-23T15:05:09;5.20;;;1.88;;
48006;SDS011;33771;48.180;11.400;2023-03-23T15:07:37;2.72;;;1.77;;
48006;SDS011;33771;48.180;11.400;2023-03-23T15:10:08;4.85;;;1.75;;
48006;SDS011;33771;48.180;11.400;2023-03-23T15:12:39;5.38;;;2.10;;
48006;SDS011;33771;48.180;11.400;2023-03-23T15:15:15;5.10;;;1.95;;
48006;SDS011;33771;48.180;11.400;2023-03-23T15:17:48;6.35;;;2.22;;
48006;SDS011;33771;48.180;11.400;2023-03-23T15:20:27;4.93;;;2.22;;
48006;SDS011;33771;48.180;11.400;2023-03-23T15:23:08;6.05;;;1.90;;
48006;SDS011;33771;48.180;11.400;2023-03-23T15:25:40;4.25;;;1.92;;
48006;SDS011;33771;48.180;11.400;2023-03-23T15:28:17;4.07;;;2.20;;
48006;SDS011;33771;48.180;11.400;2023-03-23T15:30:53;3.28;;;1.90;;
48006;SDS011;33771;48.180;11.400;2023-03-23T15:33:22;4.60;;;1.80;;
48006;SDS011;33771;48.180;11.400;2023-03-23T15:35:53;6.00;;;1.92;;
48006;SDS011;33771;48.180;11.400;2023-03-23T15:38:33;3.47;;;1.77;;
48006;SDS011;33771;48.180;11.400;2023-03-23T15:41:01;8.35;;;2.00;;
48006;SDS011;33771;48.180;11.400;2023-03-23T15:43:35;4.47;;;1.88;;
48006;SDS011;33771;48.180;11.400;2023-03-23T15:46:23;4.28;;;1.92;;
48006;SDS011;33771;48.180;11.400;2023-03-23T15:51:28;5.20;;;2.15;;
48006;SDS011;33771;48.180;11.400;2023-03-23T15:53:56;4.30;;;1.85;;
48006;SDS011;33771;48.180;11.400;2023-03-23T15:56:22;5.15;;;2.10;;
48006;SDS011;33771;48.180;11.400;2023-03-23T15:58:48;5.50;;;1.70;;
48006;SDS011;33771;48.180;11.400;2023-03-23T16:01:20;6.00;;;2.10;;
48006;SDS011;33771;48.180;11.400;2023-03-23T16:03:50;3.88;;;2.00;;
48006;SDS011;33771;48.180;11.400;2023-03-23T16:06:18;5.97;;;2.03;;
48006;SDS011;33771;48.180;11.400;2023-03-23T16:08:45;4.10;;;1.75;;
48006;SDS011;33771;48.180;11.400;2023-03-23T16:11:12;3.75;;;1.85;;
48006;SDS011;33771;48.180;11.400;2023-03-23T16:13:39;6.22;;;2.22;;
48006;SDS011;33771;48.180;11.400;2023-03-23T16:16:05;6.10;;;1.92;;
48006;SDS011;33771;48.180;11.400;2023-03-23T16:18:35;4.60;;;1.90;;
48006;SDS011;33771;48.180;11.400;2023-03-23T16:21:01;7.65;;;1.98;;
48006;SDS011;33771;48.180;11.400;2023-03-23T16:23:28;4.30;;;2.08;;
48006;SDS011;33771;48.180;11.400;2023-03-23T16:25:53;4.50;;;2.08;;
48006;SDS011;33771;48.180;11.400;2023-03-23T16:28:19;3.95;;;2.10;;
48006;SDS011;33771;48.180;11.400;2023-03-23T16:30:44;4.35;;;1.90;;
48006;SDS011;33771;48.180;11.400;2023-03-23T16:33:11;4.20;;;2.08;;
48006;SDS011;33771;48.180;11.400;2023-03-23T16:35:37;6.22;;;2.25;;
48006;SDS011;33771;48.180;11.400;2023-03-23T16:38:02;4.18;;;2.25;;
48006;SDS011;33771;48.180;11.400;2023-03-23T16:40:29;5.30;;;2.38;;
48006;SDS011;33771;48.180;11.400;2023-03-23T16:42:54;4.90;;;2.10;;
48006;SDS011;33771;48.180;11.400;2023-03-23T16:45:20;3.20;;;2.00;;
48006;SDS011;33771;48.180;11.400;2023-03-23T16:47:45;5.35;;;2.30;;
48006;SDS011;33771;48.180;11.400;2023-03-23T16:50:12;3.10;;;1.98;;
48006;SDS011;33771;48.180;11.400;2023-03-23T16:52:42;4.97;;;2.00;;
48006;SDS011;33771;48.180;11.400;2023-03-23T16:55:09;7.80;;;2.25;;
48006;SDS011;33771;48.180;11.400;2023-03-23T16:57:36;4.97;;;2.13;;
48006;SDS011;33771;48.180;11.400;2023-03-23T17:00:09;8.15;;;2.47;;
48006;SDS011;33771;48.180;11.400;2023-03-23T17:02:41;8.20;;;2.33;;
48006;SDS011;33771;48.180;11.400;2023-03-23T17:05:08;6.95;;;2.72;;
48006;SDS011;33771;48.180;11.400;2023-03-23T17:07:37;5.68;;;2.88;;
48006;SDS011;33771;48.180;11.400;2023-03-23T17:10:04;8.15;;;3.42;;
48006;SDS011;33771;48.180;11.400;2023-03-23T17:12:31;7.10;;;2.78;;
48006;SDS011;33771;48.180;11.400;2023-03-23T17:14:57;6.95;;;2.90;;
48006;SDS011;33771;48.180;11.400;2023-03-23T17:17:22;5.80;;;2.83;;
48006;SDS011;33771;48.180;11.400;2023-03-23T17:19:48;4.53;;;2.50;;
48006;SDS011;33771;48.180;11.400;2023-03-23T17:22:14;5.32;;;2.33;;
48006;SDS011;33771;48.180;11.400;2023-03-23T17:24:40;5.55;;;2.50;;
48006;SDS011;33771;48.180;11.400;2023-03-23T17:27:06;5.63;;;2.55;;
48006;SDS011;33771;48.180;11.400;2023-03-23T17:29:32;8.57;;;2.80;;
48006;SDS011;33771;48.180;11.400;2023-03-23T17:31:57;5.63;;;2.20;;